sensor_id;sensor_type;location;lat;lon;timestamp;temperature;humidity
39347;DHT22;26262;49.836;6.632;2024-03-25T00:01:13;4.30;99.90
39347;DHT22;26262;49.836;6.632;2024-03-25T00:03:39;4.20;99.90
39347;DHT22;26262;49.836;6.632;2024-03-25T00:06:05;4.20;99.90
39347;DHT22;26262;49.836;6.632;2024-03-25T00:08:30;4.10;99.90
39347;DHT22;26262;49.836;6.632;2024-03-25T00:10:56;4.10;99.90
39347;DHT22;26262;49.836;6.632;2024-03-25T00:13:22;4.10;99.90
39347;DHT22;26262;49.836;6.632;2024-03-25T00:15:47;4.00;99.90
39347;DHT22;26262;49.836;6.632;2024-03-25T00:18:13;4.00;99.90
39347;DHT22;26262;49.836;6.632;2024-03-25T00:20:38;3.90;99.90
39347;DHT22;26262;49.836;6.632;2024-03-25T00:23:04;3.90;99.90
39347;DHT22;26262;49.836;6.632;2024-03-25T00:25:30;3.90;99.90
39347;DHT22;26262;49.836;6.632;2024-03-25T00:27:55;3.80;99.90
39347;DHT22;26262;49.836;6.632;2024-03-25T00:30:22;3.80;99.90
39347;DHT22;26262;49.836;6.632;2024-03-25T00:32:47;3.70;99.90
39347;DHT22;26262;49.836;6.632;2024-03-25T00:35:13;3.70;99.90
39347;DHT22;26262;49.836;6.632;2024-03-25T00:37:38;3.70;99.90
39347;DHT22;26262;49.836;6.632;2024-03-25T00:40:04;3.70;99.90
39347;DHT22;26262;49.836;6.632;2024-03-25T00:42:32;3.70;99.90
39347;DHT22;26262;49.836;6.632;2024-03-25T00:44:58;3.70;99.90
39347;DHT22;26262;49.836;6.632;2024-03-25T00:47:24;3.60;99.90
39347;DHT22;26262;49.836;6.632;2024-03-25T00:49:49;3.60;99.90
39347;DHT22;26262;49.836;6.632;2024-03-25T00:52:15;3.60;99.90
39347;DHT22;26262;49.836;6.632;2024-03-25T00:54:40;3.60;99.90
39347;DHT22;26262;49.836;6.632;2024-03-25T00:57:06;3.50;99.90
39347;DHT22;26262;49.836;6.632;2024-03-25T00:59:31;3.50;99.90
39347;DHT22;26262;49.836;6.632;2024-03-25T01:01:57;3.50;99.90
39347;DHT22;26262;49.836;6.632;2024-03-25T01:04:23;3.40;99.90
39347;DHT22;26262;49.836;6.632;2024-03-25T01:06:48;3.40;99.90
39347;DHT22;26262;49.836;6.632;2024-03-25T01:09:14;3.40;99.90
39347;DHT22;26262;49.836;6.632;2024-03-25T01:11:39;3.30;99.90
39347;DHT22;26262;49.836;6.632;2024-03-25T01:14:05;3.30;99.90
39347;DHT22;26262;49.836;6.632;2024-03-25T01:16:31;3.30;99.90
39347;DHT22;26262;49.836;6.632;2024-03-25T01:18:57;3.30;99.90
39347;DHT22;26262;49.836;6.632;2024-03-25T01:21:24;3.20;99.90
39347;DHT22;26262;49.836;6.632;2024-03-25T01:23:50;3.20;99.90
39347;DHT22;26262;49.836;6.632;2024-03-25T01:26:15;3.10;99.90
39347;DHT22;26262;49.836;6.632;2024-03-25T01:28:42;3.10;99.90
39347;DHT22;26262;49.836;6.632;2024-03-25T01:31:07;3.00;99.90
39347;DHT22;26262;49.836;6.632;2024-03-25T01:33:33;3.00;99.90
39347;DHT22;26262;49.836;6.632;2024-03-25T01:35:59;3.00;99.90
39347;DHT22;26262;49.836;6.632;2024-03-25T01:38:25;2.90;99.90
39347;DHT22;26262;49.836;6.632;2024-03-25T01:40:50;2.90;99.90
39347;DHT22;26262;49.836;6.632;2024-03-25T01:43:16;2.90;99.90
39347;DHT22;26262;49.836;6.632;2024-03-25T01:45:42;2.90;99.90
39347;DHT22;26262;49.836;6.632;2024-03-25T01:48:08;2.90;99.90
39347;DHT22;26262;49.836;6.632;2024-03-25T01:50:42;2.90;99.90
39347;DHT22;26262;49.836;6.632;2024-03-25T01:53:09;2.80;99.90
39347;DHT22;26262;49.836;6.632;2024-03-25T01:55:35;2.70;99.90
39347;DHT22;26262;49.836;6.632;2024-03-25T01:58:02;2.70;99.90
39347;DHT22;26262;49.836;6.632;2024-03-25T02:00:29;2.60;99.90
39347;DHT22;26262;49.836;6.632;2024-03-25T02:02:55;2.60;99.90
39347;DHT22;26262;49.836;6.632;2024-03-25T02:05:21;2.60;99.90
39347;DHT22;26262;49.836;6.632;2024-03-25T02:07:47;2.60;99.90
39347;DHT22;26262;49.836;6.632;2024-03-25T02:10:13;2.60;99.90
39347;DHT22;26262;49.836;6.632;2024-03-25T02:12:42;2.60;99.90
39347;DHT22;26262;49.836;6.632;2024-03-25T02:15:09;2.60;99.90
39347;DHT22;26262;49.836;6.632;2024-03-25T02:17:35;2.60;99.90
39347;DHT22;26262;49.836;6.632;2024-03-25T02:20:02;2.60;99.90
39347;DHT22;26262;49.836;6.632;2024-03-25T02:22:28;2.50;99.90
39347;DHT22;26262;49.836;6.632;2024-03-25T02:24:57;2.50;99.90
39347;DHT22;26262;49.836;6.632;2024-03-25T02:27:23;2.40;99.90
39347;DHT22;26262;49.836;6.632;2024-03-25T02:29:50;2.40;99.90
39347;DHT22;26262;49.836;6.632;2024-03-25T02:32:15;2.40;99.90
39347;DHT22;26262;49.836;6.632;2024-03-25T02:34:49;2.40;99.90
39347;DHT22;26262;49.836;6.632;2024-03-25T02:37:15;2.30;99.90
39347;DHT22;26262;49.836;6.632;2024-03-25T02:39:41;2.30;99.90
39347;DHT22;26262;49.836;6.632;2024-03-25T02:42:07;2.20;99.90
39347;DHT22;26262;49.836;6.632;2024-03-25T02:44:33;2.20;99.90
39347;DHT22;26262;49.836;6.632;2024-03-25T02:46:58;2.20;99.90
39347;DHT22;26262;49.836;6.632;2024-03-25T02:49:24;2.10;99.90
39347;DHT22;26262;49.836;6.632;2024-03-25T02:51:50;2.10;99.90
39347;DHT22;26262;49.836;6.632;2024-03-25T02:54:16;2.20;99.90
39347;DHT22;26262;49.836;6.632;2024-03-25T02:56:42;2.10;99.90
39347;DHT22;26262;49.836;6.632;2024-03-25T02:59:08;2.00;99.90
39347;DHT22;26262;49.836;6.632;2024-03-25T03:01:33;2.00;99.90
39347;DHT22;26262;49.836;6.632;2024-03-25T03:03:59;2.00;99.90
39347;DHT22;26262;49.836;6.632;2024-03-25T03:06:24;2.00;99.90
39347;DHT22;26262;49.836;6.632;2024-03-25T03:08:50;2.00;99.90
39347;DHT22;26262;49.836;6.632;2024-03-25T03:11:15;2.00;99.90
39347;DHT22;26262;49.836;6.632;2024-03-25T03:13:41;2.00;99.90
39347;DHT22;26262;49.836;6.632;2024-03-25T03:16:06;1.90;99.90
39347;DHT22;26262;49.836;6.632;2024-03-25T03:18:32;1.90;99.90
39347;DHT22;26262;49.836;6.632;2024-03-25T03:20:57;1.90;99.90
39347;DHT22;26262;49.836;6.632;2024-03-25T03:23:23;1.90;99.90
39347;DHT22;26262;49.836;6.632;2024-03-25T03:25:49;1.90;99.90
39347;DHT22;26262;49.836;6.632;2024-03-25T03:28:15;1.80;99.90
39347;DHT22;26262;49.836;6.632;2024-03-25T03:30:41;1.80;99.90
39347;DHT22;26262;49.836;6.632;2024-03-25T03:33:06;1.80;99.90
39347;DHT22;26262;49.836;6.632;2024-03-25T03:35:35;1.70;99.90
39347;DHT22;26262;49.836;6.632;2024-03-25T03:38:01;1.70;99.90
39347;DHT22;26262;49.836;6.632;2024-03-25T03:40:28;1.70;99.90
39347;DHT22;26262;49.836;6.632;2024-03-25T03:42:54;1.70;99.90
39347;DHT22;26262;49.836;6.632;2024-03-25T03:45:20;1.70;99.90
39347;DHT22;26262;49.836;6.632;2024-03-25T03:47:45;1.60;99.90
39347;DHT22;26262;49.836;6.632;2024-03-25T03:50:11;1.60;99.90
39347;DHT22;26262;49.836;6.632;2024-03-25T03:52:36;1.60;99.90
39347;DHT22;26262;49.836;6.632;2024-03-25T03:55:02;1.60;99.90
39347;DHT22;26262;49.836;6.632;2024-03-25T03:57:27;1.60;99.90
39347;DHT22;26262;49.836;6.632;2024-03-25T03:59:53;1.60;99.90
39347;DHT22;26262;49.836;6.632;2024-03-25T04:02:18;1.50;99.90
39347;DHT22;26262;49.836;6.632;2024-03-25T04:04:44;1.50;99.90
39347;DHT22;26262;49.836;6.632;2024-03-25T04:07:09;1.40;99.90
39347;DHT22;26262;49.836;6.632;2024-03-25T04:09:35;1.40;99.90
39347;DHT22;26262;49.836;6.632;2024-03-25T04:12:01;1.40;99.90
39347;DHT22;26262;49.836;6.632;2024-03-25T04:14:26;1.30;99.90
39347;DHT22;26262;49.836;6.632;2024-03-25T04:16:52;1.30;99.90
39347;DHT22;26262;49.836;6.632;2024-03-25T04:19:19;1.30;99.90
39347;DHT22;26262;49.836;6.632;2024-03-25T04:21:44;1.30;99.90
39347;DHT22;26262;49.836;6.632;2024-03-25T04:24:10;1.30;99.90
39347;DHT22;26262;49.836;6.632;2024-03-25T04:26:35;1.30;99.90
39347;DHT22;26262;49.836;6.632;2024-03-25T04:29:01;1.30;99.90
39347;DHT22;26262;49.836;6.632;2024-03-25T04:31:26;1.30;99.90
39347;DHT22;26262;49.836;6.632;2024-03-25T04:33:52;1.20;99.90
39347;DHT22;26262;49.836;6.632;2024-03-25T04:36:17;1.20;99.90
39347;DHT22;26262;49.836;6.632;2024-03-25T04:38:43;1.30;99.90
39347;DHT22;26262;49.836;6.632;2024-03-25T04:41:08;1.20;99.90
39347;DHT22;26262;49.836;6.632;2024-03-25T04:43:34;1.20;99.90
39347;DHT22;26262;49.836;6.632;2024-03-25T04:46:03;1.20;99.90
39347;DHT22;26262;49.836;6.632;2024-03-25T04:48:28;1.20;99.90
39347;DHT22;26262;49.836;6.632;2024-03-25T04:50:54;1.10;99.90
39347;DHT22;26262;49.836;6.632;2024-03-25T04:53:20;1.10;99.90
39347;DHT22;26262;49.836;6.632;2024-03-25T04:55:46;1.20;99.90
39347;DHT22;26262;49.836;6.632;2024-03-25T04:58:11;1.20;99.90
39347;DHT22;26262;49.836;6.632;2024-03-25T05:00:36;1.10;99.90
39347;DHT22;26262;49.836;6.632;2024-03-25T05:03:02;1.10;99.90
39347;DHT22;26262;49.836;6.632;2024-03-25T05:05:28;1.00;99.90
39347;DHT22;26262;49.836;6.632;2024-03-25T05:07:53;1.00;99.90
39347;DHT22;26262;49.836;6.632;2024-03-25T05:10:19;0.90;99.90
39347;DHT22;26262;49.836;6.632;2024-03-25T05:12:45;0.90;99.90
39347;DHT22;26262;49.836;6.632;2024-03-25T05:15:12;0.90;99.90
39347;DHT22;26262;49.836;6.632;2024-03-25T05:17:38;0.90;99.90
39347;DHT22;26262;49.836;6.632;2024-03-25T05:20:04;0.90;99.90
39347;DHT22;26262;49.836;6.632;2024-03-25T05:22:30;0.90;99.90
39347;DHT22;26262;49.836;6.632;2024-03-25T05:24:56;0.90;99.90
39347;DHT22;26262;49.836;6.632;2024-03-25T05:27:21;0.90;99.90
39347;DHT22;26262;49.836;6.632;2024-03-25T05:29:48;0.90;99.90
39347;DHT22;26262;49.836;6.632;2024-03-25T05:32:14;0.90;99.90
39347;DHT22;26262;49.836;6.632;2024-03-25T05:34:41;0.90;99.90
39347;DHT22;26262;49.836;6.632;2024-03-25T05:37:07;0.90;99.90
39347;DHT22;26262;49.836;6.632;2024-03-25T05:39:33;0.90;99.90
39347;DHT22;26262;49.836;6.632;2024-03-25T05:41:58;0.90;99.90
39347;DHT22;26262;49.836;6.632;2024-03-25T05:44:24;0.90;99.90
39347;DHT22;26262;49.836;6.632;2024-03-25T05:46:49;0.90;99.90
39347;DHT22;26262;49.836;6.632;2024-03-25T05:49:15;0.90;99.90
39347;DHT22;26262;49.836;6.632;2024-03-25T05:51:40;0.90;99.90
39347;DHT22;26262;49.836;6.632;2024-03-25T05:54:06;0.90;99.90
39347;DHT22;26262;49.836;6.632;2024-03-25T05:56:31;1.00;99.90
39347;DHT22;26262;49.836;6.632;2024-03-25T05:58:57;0.90;99.90
39347;DHT22;26262;49.836;6.632;2024-03-25T06:01:23;1.00;99.90
39347;DHT22;26262;49.836;6.632;2024-03-25T06:03:48;0.90;99.90
39347;DHT22;26262;49.836;6.632;2024-03-25T06:06:14;1.00;99.90
39347;DHT22;26262;49.836;6.632;2024-03-25T06:08:39;1.00;99.90
39347;DHT22;26262;49.836;6.632;2024-03-25T06:11:05;1.00;99.90
39347;DHT22;26262;49.836;6.632;2024-03-25T06:13:30;1.10;99.90
39347;DHT22;26262;49.836;6.632;2024-03-25T06:15:56;1.10;99.90
39347;DHT22;26262;49.836;6.632;2024-03-25T06:18:22;1.10;99.90
39347;DHT22;26262;49.836;6.632;2024-03-25T06:20:47;1.10;99.90
39347;DHT22;26262;49.836;6.632;2024-03-25T06:23:23;1.20;99.90
39347;DHT22;26262;49.836;6.632;2024-03-25T06:25:50;1.20;99.90
39347;DHT22;26262;49.836;6.632;2024-03-25T06:28:15;1.20;99.90
39347;DHT22;26262;49.836;6.632;2024-03-25T06:30:41;1.20;99.90
39347;DHT22;26262;49.836;6.632;2024-03-25T06:33:25;1.30;99.90
39347;DHT22;26262;49.836;6.632;2024-03-25T06:36:09;1.30;99.90
39347;DHT22;26262;49.836;6.632;2024-03-25T06:38:35;1.30;99.90
39347;DHT22;26262;49.836;6.632;2024-03-25T06:41:00;1.30;99.90
39347;DHT22;26262;49.836;6.632;2024-03-25T06:43:26;1.40;99.90
39347;DHT22;26262;49.836;6.632;2024-03-25T06:45:51;1.40;99.90
39347;DHT22;26262;49.836;6.632;2024-03-25T06:48:17;1.50;99.90
39347;DHT22;26262;49.836;6.632;2024-03-25T06:50:52;1.50;99.90
39347;DHT22;26262;49.836;6.632;2024-03-25T06:53:18;1.60;99.90
39347;DHT22;26262;49.836;6.632;2024-03-25T06:55:53;1.60;99.90
39347;DHT22;26262;49.836;6.632;2024-03-25T06:58:20;1.70;99.90
39347;DHT22;26262;49.836;6.632;2024-03-25T07:00:46;1.70;99.90
39347;DHT22;26262;49.836;6.632;2024-03-25T07:03:14;1.80;99.90
39347;DHT22;26262;49.836;6.632;2024-03-25T07:05:39;1.90;99.90
39347;DHT22;26262;49.836;6.632;2024-03-25T07:08:05;1.90;99.90
39347;DHT22;26262;49.836;6.632;2024-03-25T07:10:31;1.90;99.90
39347;DHT22;26262;49.836;6.632;2024-03-25T07:12:56;2.00;99.90
39347;DHT22;26262;49.836;6.632;2024-03-25T07:15:22;2.10;99.90
39347;DHT22;26262;49.836;6.632;2024-03-25T07:17:47;2.20;99.90
39347;DHT22;26262;49.836;6.632;2024-03-25T07:20:13;2.20;99.90
39347;DHT22;26262;49.836;6.632;2024-03-25T07:22:38;2.30;99.90
39347;DHT22;26262;49.836;6.632;2024-03-25T07:25:04;2.40;99.90
39347;DHT22;26262;49.836;6.632;2024-03-25T07:27:30;2.50;99.90
39347;DHT22;26262;49.836;6.632;2024-03-25T07:29:55;2.50;99.90
39347;DHT22;26262;49.836;6.632;2024-03-25T07:32:21;2.60;99.90
39347;DHT22;26262;49.836;6.632;2024-03-25T07:34:46;2.60;99.90
39347;DHT22;26262;49.836;6.632;2024-03-25T07:37:12;2.80;99.90
39347;DHT22;26262;49.836;6.632;2024-03-25T07:39:37;2.90;99.90
39347;DHT22;26262;49.836;6.632;2024-03-25T07:42:03;3.10;99.90
39347;DHT22;26262;49.836;6.632;2024-03-25T07:44:28;3.20;99.90
39347;DHT22;26262;49.836;6.632;2024-03-25T07:46:54;3.30;99.90
39347;DHT22;26262;49.836;6.632;2024-03-25T07:49:20;3.50;99.90
39347;DHT22;26262;49.836;6.632;2024-03-25T07:51:46;3.70;99.90
39347;DHT22;26262;49.836;6.632;2024-03-25T07:54:12;3.80;99.90
39347;DHT22;26262;49.836;6.632;2024-03-25T07:56:42;4.10;99.90
39347;DHT22;26262;49.836;6.632;2024-03-25T07:59:07;4.10;99.90
39347;DHT22;26262;49.836;6.632;2024-03-25T08:01:33;4.20;99.90
39347;DHT22;26262;49.836;6.632;2024-03-25T08:03:58;4.30;99.90
39347;DHT22;26262;49.836;6.632;2024-03-25T08:06:24;4.50;99.90
39347;DHT22;26262;49.836;6.632;2024-03-25T08:08:49;4.60;99.90
39347;DHT22;26262;49.836;6.632;2024-03-25T08:11:15;4.70;99.90
39347;DHT22;26262;49.836;6.632;2024-03-25T08:13:40;4.90;99.90
39347;DHT22;26262;49.836;6.632;2024-03-25T08:16:06;5.10;99.90
39347;DHT22;26262;49.836;6.632;2024-03-25T08:18:31;5.20;99.90
39347;DHT22;26262;49.836;6.632;2024-03-25T08:20:57;5.30;99.90
39347;DHT22;26262;49.836;6.632;2024-03-25T08:23:23;5.50;99.90
39347;DHT22;26262;49.836;6.632;2024-03-25T08:25:48;5.70;99.90
39347;DHT22;26262;49.836;6.632;2024-03-25T08:28:14;5.70;99.90
39347;DHT22;26262;49.836;6.632;2024-03-25T08:30:40;5.90;99.90
39347;DHT22;26262;49.836;6.632;2024-03-25T08:33:05;5.90;99.90
39347;DHT22;26262;49.836;6.632;2024-03-25T08:35:31;6.00;99.90
39347;DHT22;26262;49.836;6.632;2024-03-25T08:37:56;6.10;99.90
39347;DHT22;26262;49.836;6.632;2024-03-25T08:40:22;6.10;99.90
39347;DHT22;26262;49.836;6.632;2024-03-25T08:42:47;6.30;99.90
39347;DHT22;26262;49.836;6.632;2024-03-25T08:45:13;6.40;99.90
39347;DHT22;26262;49.836;6.632;2024-03-25T08:47:38;6.60;99.90
39347;DHT22;26262;49.836;6.632;2024-03-25T08:50:06;6.70;99.90
39347;DHT22;26262;49.836;6.632;2024-03-25T08:52:32;6.80;99.90
39347;DHT22;26262;49.836;6.632;2024-03-25T08:54:57;7.00;99.90
39347;DHT22;26262;49.836;6.632;2024-03-25T08:57:23;7.20;99.90
39347;DHT22;26262;49.836;6.632;2024-03-25T08:59:48;7.40;99.90
39347;DHT22;26262;49.836;6.632;2024-03-25T09:02:14;7.70;99.90
39347;DHT22;26262;49.836;6.632;2024-03-25T09:04:39;7.60;99.90
39347;DHT22;26262;49.836;6.632;2024-03-25T09:07:05;7.80;99.90
39347;DHT22;26262;49.836;6.632;2024-03-25T09:09:30;8.00;99.90
39347;DHT22;26262;49.836;6.632;2024-03-25T09:12:14;8.20;99.90
39347;DHT22;26262;49.836;6.632;2024-03-25T09:14:40;8.30;99.90
39347;DHT22;26262;49.836;6.632;2024-03-25T09:17:05;8.40;99.90
39347;DHT22;26262;49.836;6.632;2024-03-25T09:19:31;8.30;99.90
39347;DHT22;26262;49.836;6.632;2024-03-25T09:21:56;8.60;99.90
39347;DHT22;26262;49.836;6.632;2024-03-25T09:24:22;8.70;99.90
39347;DHT22;26262;49.836;6.632;2024-03-25T09:26:50;8.80;99.90
39347;DHT22;26262;49.836;6.632;2024-03-25T09:29:15;8.80;99.90
39347;DHT22;26262;49.836;6.632;2024-03-25T09:31:41;8.80;99.90
39347;DHT22;26262;49.836;6.632;2024-03-25T09:34:06;8.80;99.90
39347;DHT22;26262;49.836;6.632;2024-03-25T09:36:32;8.70;99.90
39347;DHT22;26262;49.836;6.632;2024-03-25T09:38:57;9.00;99.90
39347;DHT22;26262;49.836;6.632;2024-03-25T09:41:23;9.50;99.90
39347;DHT22;26262;49.836;6.632;2024-03-25T09:43:53;9.70;99.90
39347;DHT22;26262;49.836;6.632;2024-03-25T09:46:20;9.80;99.90
39347;DHT22;26262;49.836;6.632;2024-03-25T09:48:46;10.20;99.90
39347;DHT22;26262;49.836;6.632;2024-03-25T09:51:11;10.60;99.90
39347;DHT22;26262;49.836;6.632;2024-03-25T09:53:37;10.50;99.90
39347;DHT22;26262;49.836;6.632;2024-03-25T09:56:03;10.30;99.90
39347;DHT22;26262;49.836;6.632;2024-03-25T09:58:30;10.20;99.90
39347;DHT22;26262;49.836;6.632;2024-03-25T10:00:57;10.20;99.90
39347;DHT22;26262;49.836;6.632;2024-03-25T10:03:23;10.60;99.90
39347;DHT22;26262;49.836;6.632;2024-03-25T10:05:49;11.50;99.90
39347;DHT22;26262;49.836;6.632;2024-03-25T10:08:20;12.10;99.90
39347;DHT22;26262;49.836;6.632;2024-03-25T10:10:46;12.60;99.90
39347;DHT22;26262;49.836;6.632;2024-03-25T10:13:11;12.50;99.90
39347;DHT22;26262;49.836;6.632;2024-03-25T10:15:37;12.30;99.90
39347;DHT22;26262;49.836;6.632;2024-03-25T10:18:02;11.80;99.90
39347;DHT22;26262;49.836;6.632;2024-03-25T10:20:28;11.80;99.90
39347;DHT22;26262;49.836;6.632;2024-03-25T10:22:53;11.80;99.90
39347;DHT22;26262;49.836;6.632;2024-03-25T10:25:23;11.40;99.90
39347;DHT22;26262;49.836;6.632;2024-03-25T10:27:54;11.20;99.90
39347;DHT22;26262;49.836;6.632;2024-03-25T10:30:20;11.20;99.90
39347;DHT22;26262;49.836;6.632;2024-03-25T10:32:46;11.50;99.90
39347;DHT22;26262;49.836;6.632;2024-03-25T10:35:12;11.60;99.90
39347;DHT22;26262;49.836;6.632;2024-03-25T10:37:39;11.70;99.90
39347;DHT22;26262;49.836;6.632;2024-03-25T10:40:06;11.90;99.90
39347;DHT22;26262;49.836;6.632;2024-03-25T10:42:33;11.80;99.90
39347;DHT22;26262;49.836;6.632;2024-03-25T10:44:59;11.60;99.90
39347;DHT22;26262;49.836;6.632;2024-03-25T10:47:28;11.50;99.90
39347;DHT22;26262;49.836;6.632;2024-03-25T10:49:59;11.20;99.90
39347;DHT22;26262;49.836;6.632;2024-03-25T10:52:27;11.10;99.90
39347;DHT22;26262;49.836;6.632;2024-03-25T10:54:55;11.00;99.90
39347;DHT22;26262;49.836;6.632;2024-03-25T10:57:21;10.80;99.90
39347;DHT22;26262;49.836;6.632;2024-03-25T10:59:48;10.80;99.90
39347;DHT22;26262;49.836;6.632;2024-03-25T11:02:14;10.90;99.90
39347;DHT22;26262;49.836;6.632;2024-03-25T11:04:41;10.90;99.90
39347;DHT22;26262;49.836;6.632;2024-03-25T11:07:12;10.80;99.90
39347;DHT22;26262;49.836;6.632;2024-03-25T11:09:38;10.80;99.90
39347;DHT22;26262;49.836;6.632;2024-03-25T11:12:04;10.80;99.90
39347;DHT22;26262;49.836;6.632;2024-03-25T11:14:30;10.80;99.90
39347;DHT22;26262;49.836;6.632;2024-03-25T11:16:58;11.10;99.90
39347;DHT22;26262;49.836;6.632;2024-03-25T11:19:29;11.70;99.90
39347;DHT22;26262;49.836;6.632;2024-03-25T11:22:06;11.90;99.90
39347;DHT22;26262;49.836;6.632;2024-03-25T11:24:32;11.90;99.90
39347;DHT22;26262;49.836;6.632;2024-03-25T11:26:58;11.60;99.90
39347;DHT22;26262;49.836;6.632;2024-03-25T11:29:26;11.50;99.90
39347;DHT22;26262;49.836;6.632;2024-03-25T11:31:52;11.40;99.90
39347;DHT22;26262;49.836;6.632;2024-03-25T11:34:21;11.40;99.90
39347;DHT22;26262;49.836;6.632;2024-03-25T11:36:47;11.40;99.90
39347;DHT22;26262;49.836;6.632;2024-03-25T11:39:14;11.30;99.90
39347;DHT22;26262;49.836;6.632;2024-03-25T11:41:40;11.40;99.90
39347;DHT22;26262;49.836;6.632;2024-03-25T11:44:07;11.70;99.90
39347;DHT22;26262;49.836;6.632;2024-03-25T11:46:36;11.80;99.90
39347;DHT22;26262;49.836;6.632;2024-03-25T11:49:01;11.90;99.90
39347;DHT22;26262;49.836;6.632;2024-03-25T11:51:28;11.80;99.90
39347;DHT22;26262;49.836;6.632;2024-03-25T11:53:53;12.00;99.90
39347;DHT22;26262;49.836;6.632;2024-03-25T11:56:19;12.30;99.90
39347;DHT22;26262;49.836;6.632;2024-03-25T11:58:45;12.70;99.90
39347;DHT22;26262;49.836;6.632;2024-03-25T12:01:11;12.80;99.90
39347;DHT22;26262;49.836;6.632;2024-03-25T12:03:36;12.60;97.70
39347;DHT22;26262;49.836;6.632;2024-03-25T12:06:02;12.40;99.50
39347;DHT22;26262;49.836;6.632;2024-03-25T12:08:28;12.70;99.90
39347;DHT22;26262;49.836;6.632;2024-03-25T12:10:56;13.20;98.00
39347;DHT22;26262;49.836;6.632;2024-03-25T12:13:40;13.40;97.50
39347;DHT22;26262;49.836;6.632;2024-03-25T12:16:08;13.10;97.30
39347;DHT22;26262;49.836;6.632;2024-03-25T12:18:35;13.00;97.70
39347;DHT22;26262;49.836;6.632;2024-03-25T12:21:01;13.00;98.60
39347;DHT22;26262;49.836;6.632;2024-03-25T12:23:32;12.90;99.10
39347;DHT22;26262;49.836;6.632;2024-03-25T12:26:01;12.70;99.30
39347;DHT22;26262;49.836;6.632;2024-03-25T12:28:27;12.60;99.60
39347;DHT22;26262;49.836;6.632;2024-03-25T12:30:54;12.60;99.80
39347;DHT22;26262;49.836;6.632;2024-03-25T12:33:23;12.50;98.90
39347;DHT22;26262;49.836;6.632;2024-03-25T12:35:49;12.30;97.90
39347;DHT22;26262;49.836;6.632;2024-03-25T12:40:47;12.30;98.80
39347;DHT22;26262;49.836;6.632;2024-03-25T12:43:16;12.90;98.40
39347;DHT22;26262;49.836;6.632;2024-03-25T12:45:41;13.80;98.40
39347;DHT22;26262;49.836;6.632;2024-03-25T12:48:08;14.60;97.90
39347;DHT22;26262;49.836;6.632;2024-03-25T12:50:34;15.40;95.50
39347;DHT22;26262;49.836;6.632;2024-03-25T12:52:59;16.00;95.90
39347;DHT22;26262;49.836;6.632;2024-03-25T12:55:25;16.00;93.90
39347;DHT22;26262;49.836;6.632;2024-03-25T12:57:50;15.30;92.90
39347;DHT22;26262;49.836;6.632;2024-03-25T13:00:16;14.30;94.90
39347;DHT22;26262;49.836;6.632;2024-03-25T13:02:42;13.80;94.70
39347;DHT22;26262;49.836;6.632;2024-03-25T13:05:08;13.50;95.10
39347;DHT22;26262;49.836;6.632;2024-03-25T13:07:33;13.30;96.60
39347;DHT22;26262;49.836;6.632;2024-03-25T13:09:59;13.40;96.80
39347;DHT22;26262;49.836;6.632;2024-03-25T13:12:24;13.80;96.00
39347;DHT22;26262;49.836;6.632;2024-03-25T13:14:50;13.90;95.20
39347;DHT22;26262;49.836;6.632;2024-03-25T13:17:15;14.00;94.10
39347;DHT22;26262;49.836;6.632;2024-03-25T13:19:41;14.20;94.40
39347;DHT22;26262;49.836;6.632;2024-03-25T13:22:06;14.80;94.40
39347;DHT22;26262;49.836;6.632;2024-03-25T13:24:32;15.50;91.60
39347;DHT22;26262;49.836;6.632;2024-03-25T13:26:57;16.10;92.50
39347;DHT22;26262;49.836;6.632;2024-03-25T13:29:23;16.40;92.70
39347;DHT22;26262;49.836;6.632;2024-03-25T13:31:48;16.70;92.10
39347;DHT22;26262;49.836;6.632;2024-03-25T13:34:14;17.20;93.60
39347;DHT22;26262;49.836;6.632;2024-03-25T13:36:39;17.70;90.80
39347;DHT22;26262;49.836;6.632;2024-03-25T13:39:05;17.90;90.10
39347;DHT22;26262;49.836;6.632;2024-03-25T13:41:30;18.00;90.10
39347;DHT22;26262;49.836;6.632;2024-03-25T13:43:56;18.20;90.30
39347;DHT22;26262;49.836;6.632;2024-03-25T13:46:21;17.70;83.90
39347;DHT22;26262;49.836;6.632;2024-03-25T13:48:47;17.40;90.40
39347;DHT22;26262;49.836;6.632;2024-03-25T13:51:13;17.80;88.90
39347;DHT22;26262;49.836;6.632;2024-03-25T13:53:38;18.10;88.40
39347;DHT22;26262;49.836;6.632;2024-03-25T13:56:05;17.80;84.80
39347;DHT22;26262;49.836;6.632;2024-03-25T13:58:31;18.00;83.30
39347;DHT22;26262;49.836;6.632;2024-03-25T14:00:57;17.70;86.40
39347;DHT22;26262;49.836;6.632;2024-03-25T14:03:22;17.60;84.10
39347;DHT22;26262;49.836;6.632;2024-03-25T14:05:48;16.90;83.90
39347;DHT22;26262;49.836;6.632;2024-03-25T14:08:13;16.70;87.10
39347;DHT22;26262;49.836;6.632;2024-03-25T14:10:39;16.80;89.60
39347;DHT22;26262;49.836;6.632;2024-03-25T14:13:04;17.30;87.00
39347;DHT22;26262;49.836;6.632;2024-03-25T14:15:31;17.40;82.70
39347;DHT22;26262;49.836;6.632;2024-03-25T14:17:56;17.00;85.30
39347;DHT22;26262;49.836;6.632;2024-03-25T14:20:22;16.70;85.30
39347;DHT22;26262;49.836;6.632;2024-03-25T14:22:48;16.80;85.20
39347;DHT22;26262;49.836;6.632;2024-03-25T14:25:13;16.70;84.20
39347;DHT22;26262;49.836;6.632;2024-03-25T14:27:41;16.90;86.90
39347;DHT22;26262;49.836;6.632;2024-03-25T14:30:07;17.20;83.70
39347;DHT22;26262;49.836;6.632;2024-03-25T14:32:35;17.40;81.30
39347;DHT22;26262;49.836;6.632;2024-03-25T14:35:00;17.30;85.40
39347;DHT22;26262;49.836;6.632;2024-03-25T14:37:27;17.40;85.50
39347;DHT22;26262;49.836;6.632;2024-03-25T14:39:52;17.50;85.50
39347;DHT22;26262;49.836;6.632;2024-03-25T14:42:18;17.60;81.80
39347;DHT22;26262;49.836;6.632;2024-03-25T14:44:43;17.00;81.40
39347;DHT22;26262;49.836;6.632;2024-03-25T14:47:09;16.50;84.80
39347;DHT22;26262;49.836;6.632;2024-03-25T14:49:34;16.40;82.60
39347;DHT22;26262;49.836;6.632;2024-03-25T14:52:00;16.40;85.20
39347;DHT22;26262;49.836;6.632;2024-03-25T14:54:33;16.20;84.70
39347;DHT22;26262;49.836;6.632;2024-03-25T14:56:59;16.30;87.10
39347;DHT22;26262;49.836;6.632;2024-03-25T14:59:26;16.30;85.90
39347;DHT22;26262;49.836;6.632;2024-03-25T15:01:52;16.50;86.00
39347;DHT22;26262;49.836;6.632;2024-03-25T15:04:17;16.30;85.30
39347;DHT22;26262;49.836;6.632;2024-03-25T15:06:43;16.30;85.00
39347;DHT22;26262;49.836;6.632;2024-03-25T15:09:08;16.10;84.40
39347;DHT22;26262;49.836;6.632;2024-03-25T15:11:34;15.70;83.50
39347;DHT22;26262;49.836;6.632;2024-03-25T15:13:59;15.60;82.40
39347;DHT22;26262;49.836;6.632;2024-03-25T15:16:25;15.60;86.90
39347;DHT22;26262;49.836;6.632;2024-03-25T15:18:51;15.10;83.00
39347;DHT22;26262;49.836;6.632;2024-03-25T15:21:16;14.80;82.20
39347;DHT22;26262;49.836;6.632;2024-03-25T15:23:42;14.70;84.60
39347;DHT22;26262;49.836;6.632;2024-03-25T15:26:07;14.50;85.00
39347;DHT22;26262;49.836;6.632;2024-03-25T15:28:33;14.30;88.70
39347;DHT22;26262;49.836;6.632;2024-03-25T15:30:59;14.30;85.10
39347;DHT22;26262;49.836;6.632;2024-03-25T15:33:24;14.30;88.10
39347;DHT22;26262;49.836;6.632;2024-03-25T15:35:50;14.20;81.90